Latest Weather Observations for Gladstone Airport

IDQ60801

Issued at 6:32 pm EST Friday 20 October 2017 (issued every 30 minutes, with the page automatically refreshed every 10 minutes)

About weather observations | Map of weather stations | Latest weather observations for QLD | Other Formats
Station Details ID: 039326 Name: GLADSTONE AIRPORT Lat: -23.87 Lon: 151.22 Height: 16.6 m
Data from the previous 72 hours. | See also: Recent months at Gladstone Airport
Date/Time
EST
Temp
°C
App
Temp
°C
Dew
Point
°C
Rel
Hum
%
Delta-T
°C
Wind Press
QNH
hPa
Press
MSL
hPa
Rain since
9am
mm
Dir  Spd
km/h
Gust
km/h
Spd
kts
Gust
kts
20/06:30pm 22.8 22.5 16.4 67 3.9 ENE 13 20 7 11 1017.3 1017.3 0.0
20/06:00pm 23.2 21.9 15.8 63 4.5 ENE 17 22 9 12 1017.2 1017.2 0.0
20/05:30pm 23.7 21.9 16.0 62 4.7 ENE 20 24 11 13 1017.1 1017.1 0.0
20/05:00pm 24.2 22.5 15.7 59 5.1 ENE 19 24 10 13 1017.1 1017.1 0.0
20/04:30pm 24.4 22.2 14.5 54 5.9 ENE 19 26 10 14 1017.1 1017.1 0.0
20/04:00pm 24.2 22.3 15.1 56 5.4 ENE 19 30 10 16 1017.1 1017.1 0.0
20/03:30pm 24.5 22.8 16.2 60 5.1 ENE 20 28 11 15 1017.1 1017.1 0.0
20/03:00pm 25.1 23.4 17.3 62 4.8 ENE 22 30 12 16 1017.3 1017.3 0.0
20/02:30pm 24.8 23.0 17.0 62 4.8 ENE 22 30 12 16 1017.6 1017.6 0.0
20/02:00pm 25.1 23.2 17.6 63 4.7 ENE 24 32 13 17 1017.9 1017.9 0.0
20/01:30pm 25.8 23.1 15.5 53 6.2 ENE 24 32 13 17 1018.2 1018.2 0.0
20/01:00pm 25.9 24.5 17.0 58 5.5 ENE 20 28 11 15 1018.6 1018.6 0.0
20/12:30pm 25.3 23.9 17.0 60 5.1 ENE 20 28 11 15 1018.9 1018.9 0.0
20/12:00pm 25.2 22.6 15.8 56 5.7 E 24 32 13 17 1019.3 1019.3 0.0
20/11:30am 25.5 23.3 16.9 59 5.3 E 24 33 13 18 1019.7 1019.7 0.0
20/11:00am 25.5 23.9 16.1 56 5.7 ESE 19 26 10 14 1019.9 1019.9 0.0
20/10:30am 25.1 23.3 15.4 55 5.9 ESE 19 28 10 15 1020.4 1020.4 0.0
20/10:00am 25.1 22.7 16.5 59 5.3 ESE 24 30 13 16 1020.6 1020.6 0.0
20/09:30am 24.5 22.6 15.7 58 5.3 SE 20 30 11 16 1020.8 1020.8 0.0
20/09:00am 23.8 22.2 16.1 62 4.7 ESE 19 26 10 14 1020.5 1020.5 0.4
20/08:30am 23.3 22.1 16.1 64 4.4 ESE 17 28 9 15 1020.6 1020.6 0.4
20/08:00am 22.6 21.5 16.4 68 3.8 SE 17 20 9 11 1020.5 1020.5 0.4
20/07:30am 21.9 21.1 16.0 69 3.6 SE 15 24 8 13 1020.4 1020.4 0.4
20/07:00am 21.7 20.4 15.8 69 3.5 SE 17 26 9 14 1020.3 1020.3 0.4
20/06:30am 21.0 21.0 16.2 74 2.9 SE 11 17 6 9 1020.2 1020.2 0.4
20/06:00am 20.4 20.1 16.4 78 2.4 SE 13 19 7 10 1020.1 1020.1 0.4
20/05:30am 20.3 20.2 16.1 77 2.5 SSE 11 17 6 9 1019.7 1019.7 0.4
20/05:00am 20.5 20.5 16.3 77 2.5 SSE 11 22 6 12 1019.5 1019.5 0.4
20/04:30am 20.0 20.7 16.2 79 2.3 SSE 7 11 4 6 1019.0 1019.0 0.4
20/04:00am 20.1 20.4 16.1 78 2.4 S 9 13 5 7 1018.8 1018.8 0.4
20/03:30am 20.1 20.4 16.1 78 2.4 SSE 9 13 5 7 1018.9 1018.9 0.4
20/03:00am 20.3 20.7 16.3 78 2.4 SSE 9 13 5 7 1019.0 1019.0 0.4
20/02:30am 20.0 20.7 16.2 79 2.3 SSE 7 11 4 6 1019.2 1019.2 0.4
20/02:00am 20.2 20.9 16.2 78 2.4 SSE 7 11 4 6 1019.4 1019.4 0.4
20/01:30am 20.6 20.6 16.2 76 2.6 SSE 11 17 6 9 1019.7 1019.7 0.4
20/01:00am 20.7 20.0 16.3 76 2.6 SSE 15 20 8 11 1020.0 1020.0 0.4
20/12:30am 20.9 20.7 16.7 77 2.5 SSE 13 20 7 11 1020.5 1020.5 0.4
20/12:00am 21.2 20.6 16.6 75 2.8 SE 15 24 8 13 1021.0 1021.0 0.4
 
Date/Time
EST
Temp
°C
App
Temp
°C
Dew
Point
°C
Rel
Hum
%
Delta-T
°C
Wind Press
QNH
hPa
Press
MSL
hPa
Rain since
9am
mm
Dir  Spd
km/h
Gust
km/h
Spd
kts
Gust
kts
19/11:30pm 21.0 21.5 16.6 76 2.7 SSE 9 17 5 9 1021.5 1021.5 0.4
19/11:00pm 21.1 21.2 16.5 75 2.8 SSE 11 19 6 10 1022.0 1022.0 0.4
19/10:30pm 21.3 21.5 16.7 75 2.8 SSE 11 19 6 10 1022.3 1022.3 0.4
19/10:00pm 21.5 21.3 16.7 74 2.9 SE 13 19 7 10 1022.3 1022.3 0.4
19/09:30pm 21.2 21.3 16.6 75 2.8 SSE 11 17 6 9 1022.3 1022.3 0.4
19/09:00pm 21.4 21.5 16.6 74 2.9 SE 11 19 6 10 1022.2 1022.2 0.4
19/08:30pm 21.4 21.1 16.4 73 3.0 SE 13 24 7 13 1021.7 1021.7 0.4
19/08:00pm 21.4 21.1 16.4 73 3.0 SE 13 22 7 12 1021.5 1021.5 0.4
19/07:30pm 21.6 20.9 16.3 72 3.2 SSE 15 24 8 13 1021.7 1021.7 0.4
19/07:00pm 21.8 20.2 16.5 72 3.2 SE 20 30 11 16 1021.9 1021.9 0.4
19/06:30pm 22.9 21.3 17.4 71 3.4 SE 22 30 12 16 1021.6 1021.6 0.2
19/06:00pm 22.8 22.0 17.9 74 3.0 ESE 19 30 10 16 1021.5 1021.5 0.2
19/05:30pm 22.9 21.5 16.9 69 3.7 ESE 20 30 11 16 1021.2 1021.2 0.0
19/05:02pm 22.3 19.7 17.7 75 2.9 ESE 28 46 15 25 1020.8 1020.8 0.0
19/05:00pm 22.2 19.0 17.3 74 3.0 ESE 30 46 16 25 1020.7 1020.7 0.0
19/04:30pm 24.0 21.1 17.0 65 4.3 ESE 28 39 15 21 1020.4 1020.4 0.0
19/04:00pm 24.1 21.7 16.4 62 4.7 ESE 24 39 13 21 1020.2 1020.2 0.0
19/03:30pm 22.9 21.1 17.8 73 3.2 SE 24 39 13 21 1020.1 1020.1 0.0
19/03:00pm 24.4 20.9 16.6 61 4.8 ESE 30 41 16 22 1020.1 1020.1 0.0
19/02:30pm 24.4 21.8 17.9 67 4.1 ESE 28 46 15 25 1020.2 1020.2 0.0
19/02:00pm 24.1 21.0 18.3 70 3.6 E 32 46 17 25 1020.4 1020.4 0.0
19/01:30pm 24.8 21.3 17.8 65 4.4 E 33 48 18 26 1020.6 1020.6 0.0
19/01:00pm 24.7 19.8 18.2 67 4.1 ESE 41 52 22 28 1020.7 1020.7 0.0
19/12:30pm 23.9 20.2 18.3 71 3.5 E 35 56 19 30 1020.9 1020.9 0.0
19/12:14pm 22.3 19.1 18.5 79 2.4 ESE 33 52 18 28 1021.1 1021.1 0.0
19/12:00pm 25.0 21.1 18.7 68 4.0 E 37 52 20 28 1021.0 1021.0 0.0
19/11:47am 24.4 20.5 18.8 71 3.6 ESE 37 56 20 30 1021.0 1021.0 0.0
19/11:30am 25.2 21.4 18.9 68 4.0 E 37 50 20 27 1021.0 1021.0 0.0
19/11:02am 24.0 21.8 18.6 72 3.4 ESE 28 48 15 26 1021.0 1021.0 0.0
19/11:00am 24.2 22.5 19.7 76 2.9 ESE 28 41 15 22 1021.1 1021.1 0.0
19/10:44am 24.8 21.5 19.2 71 3.6 E 35 56 19 30 1021.0 1021.0 0.0
19/10:30am 24.8 21.6 18.7 69 3.9 ESE 33 48 18 26 1021.1 1021.1 0.0
19/10:00am 24.5 20.6 19.6 74 3.1 ESE 39 54 21 29 1021.2 1021.2 0.0
19/09:37am 23.0 21.4 19.2 79 2.4 ESE 26 39 14 21 1021.7 1021.7 0.0
19/09:30am 22.3 21.1 20.0 87 1.5 ESE 26 37 14 20 1021.9 1021.9 0.0
19/09:18am 22.1 19.1 19.1 83 1.9 ESE 33 44 18 24 1022.1 1022.1 0.0
19/09:00am 23.5 20.7 19.0 76 2.9 ESE 32 46 17 25 1021.8 1021.8 44.8
19/08:30am 22.6 19.7 18.8 79 2.4 ESE 32 50 17 27 1022.0 1022.0 44.6
19/08:27am 22.7 20.0 19.3 81 2.2 ESE 32 50 17 27 1022.0 1022.0 44.6
19/08:24am 22.6 20.4 19.6 83 1.9 ESE 30 50 16 27 1022.0 1022.0 44.6
19/08:23am 22.4 20.5 19.4 83 1.9 ESE 28 41 15 22 1022.0 1022.0 44.6
19/08:13am 21.7 19.7 19.1 85 1.6 ESE 28 39 15 21 1022.0 1022.0 44.6
19/08:07am 22.1 19.7 19.1 83 1.9 ESE 30 46 16 25 1022.0 1022.0 44.6
19/08:06am 22.1 19.7 19.1 83 1.9 ESE 30 46 16 25 1022.0 1022.0 44.6
19/08:03am 22.2 20.2 19.2 83 1.9 ESE 28 46 15 25 1021.9 1021.9 44.6
19/08:00am 22.4 20.2 19.6 84 1.8 ESE 30 44 16 24 1021.9 1021.9 44.6
19/07:45am 21.8 19.9 19.4 86 1.5 ESE 28 46 15 25 1021.7 1021.7 44.6
19/07:37am 22.0 20.1 19.4 85 1.7 ESE 28 46 15 25 1021.5 1021.5 44.6
19/07:30am 22.0 20.0 19.2 84 1.8 ESE 28 41 15 22 1021.4 1021.4 44.6
19/07:00am 22.1 21.7 19.3 84 1.8 SE 20 28 11 15 1021.2 1021.2 44.6
19/06:30am 21.3 20.8 19.2 88 1.3 SE 20 32 11 17 1021.2 1021.2 44.6
19/06:12am 20.9 20.4 19.0 89 1.2 SE 20 32 11 17 1020.9 1020.9 44.6
19/06:05am 20.9 20.1 19.2 90 1.1 SE 22 35 12 19 1020.9 1020.9 44.6
19/06:00am 20.8 19.2 19.1 90 1.1 SE 26 39 14 21 1020.9 1020.9 44.6
19/05:52am 20.8 19.8 18.9 89 1.2 ESE 22 39 12 21 1020.9 1020.9 44.6
19/05:49am 20.9 20.8 18.8 88 1.3 SE 17 30 9 16 1020.9 1020.9 44.4
19/05:30am 21.1 21.5 18.9 87 1.4 SE 15 22 8 12 1020.4 1020.4 44.4
19/05:17am 20.9 20.3 18.8 88 1.3 SE 20 30 11 16 1020.3 1020.3 44.4
19/05:01am 21.0 20.3 19.5 91 1.0 ESE 22 33 12 18 1020.0 1020.0 44.4
19/05:00am 20.9 20.2 19.4 91 0.9 ESE 22 33 12 18 1020.1 1020.1 44.4
19/04:47am 21.2 20.7 19.1 88 1.3 SE 20 30 11 16 1019.9 1019.9 43.6
19/04:45am 21.2 20.6 18.9 87 1.4 SE 20 33 11 18 1019.9 1019.9 43.6
19/04:30am 21.4 19.6 18.8 85 1.6 SE 26 39 14 21 1019.8 1019.8 43.6
19/04:14am 21.4 20.5 19.0 86 1.5 ESE 22 32 12 17 1019.8 1019.8 43.6
19/04:10am 21.4 20.1 19.0 86 1.5 ESE 24 32 13 17 1019.7 1019.7 43.6
19/04:00am 21.4 20.4 18.8 85 1.6 SE 22 32 12 17 1019.7 1019.7 43.6
19/03:59am 21.5 20.9 18.9 85 1.6 SE 20 32 11 17 1019.7 1019.7 43.6
19/03:30am 21.8 21.2 18.8 83 1.9 SE 20 32 11 17 1019.8 1019.8 43.6
19/03:00am 21.9 21.4 19.1 84 1.8 SE 20 30 11 16 1019.8 1019.8 43.6
19/02:30am 21.9 20.6 19.1 84 1.8 ESE 24 37 13 20 1019.8 1019.8 43.6
19/02:00am 21.9 21.1 19.3 85 1.6 ESE 22 35 12 19 1019.9 1019.9 43.6
19/01:45am 21.5 21.1 19.4 88 1.3 ESE 20 28 11 15 1020.1 1020.1 43.6
19/01:30am 20.9 20.4 19.0 89 1.2 ESE 20 41 11 22 1020.3 1020.3 43.4
19/01:00am 21.4 19.7 19.7 90 1.1 ESE 28 43 15 23 1020.4 1020.4 40.6
19/12:30am 21.6 20.3 19.9 90 1.1 ESE 26 35 14 19 1020.7 1020.7 38.0
19/12:09am 21.5 19.8 19.8 90 1.1 E 28 48 15 26 1020.9 1020.9 37.2
19/12:04am 21.8 21.0 20.1 90 1.1 ESE 24 37 13 20 1021.0 1021.0 36.8
19/12:00am 21.8 20.5 19.9 89 1.2 ESE 26 37 14 20 1020.9 1020.9 36.4
 
Date/Time
EST
Temp
°C
App
Temp
°C
Dew
Point
°C
Rel
Hum
%
Delta-T
°C
Wind Press
QNH
hPa
Press
MSL
hPa
Rain since
9am
mm
Dir  Spd
km/h
Gust
km/h
Spd
kts
Gust
kts
18/11:30pm 21.7 20.1 20.0 90 1.1 ESE 28 39 15 21 1021.2 1021.2 36.4
18/11:29pm 21.8 20.2 20.1 90 1.1 ESE 28 39 15 21 1021.2 1021.2 36.4
18/11:03pm 21.8 20.9 19.9 89 1.2 ESE 24 32 13 17 1021.4 1021.4 35.0
18/11:00pm 21.9 21.0 19.8 88 1.3 ESE 24 32 13 17 1021.3 1021.3 35.0
18/10:48pm 21.4 20.3 19.5 89 1.2 ESE 24 32 13 17 1021.3 1021.3 35.0
18/10:30pm 21.5 18.9 19.6 89 1.2 ESE 32 44 17 24 1021.5 1021.5 34.8
18/10:24pm 22.1 20.7 19.6 86 1.6 ESE 26 43 14 23 1021.4 1021.4 34.6
18/10:00pm 22.4 20.6 19.6 84 1.8 ESE 28 37 15 20 1021.3 1021.3 33.8
18/09:52pm 22.5 20.9 20.0 86 1.6 ESE 28 43 15 23 1021.4 1021.4 33.8
18/09:35pm 22.1 20.9 20.0 88 1.3 ESE 26 37 14 20 1021.3 1021.3 33.8
18/09:32pm 22.2 20.6 20.1 88 1.4 ESE 28 39 15 21 1021.3 1021.3 33.8
18/09:31pm 22.1 20.5 20.0 88 1.3 ESE 28 39 15 21 1021.3 1021.3 33.8
18/09:30pm 22.1 20.5 20.0 88 1.3 ESE 28 39 15 21 1021.2 1021.2 33.8
18/09:13pm 22.3 21.8 20.0 87 1.5 ESE 22 30 12 16 1021.0 1021.0 33.8
18/09:09pm 22.4 21.9 19.9 86 1.6 ESE 22 30 12 16 1020.9 1020.9 33.8
18/09:00pm 22.6 21.3 19.9 85 1.7 ESE 26 33 14 18 1020.8 1020.8 33.8
18/08:34pm 22.4 20.7 19.9 86 1.6 ESE 28 41 15 22 1020.7 1020.7 33.8
18/08:30pm 22.4 20.4 19.9 86 1.6 ESE 30 41 16 22 1020.6 1020.6 33.8
18/08:16pm 22.1 20.1 20.0 88 1.3 ESE 30 39 16 21 1020.6 1020.6 33.8
18/08:00pm 22.0 20.6 20.5 91 1.0 ESE 28 37 15 20 1020.4 1020.4 33.8
18/07:30pm 22.5 21.9 20.4 88 1.4 SE 24 41 13 22 1019.9 1019.9 32.2
18/07:24pm 22.6 21.6 20.5 88 1.4 SE 26 39 14 21 1019.8 1019.8 32.0
18/07:13pm 22.9 22.2 20.2 85 1.7 ESE 24 33 13 18 1019.7 1019.7 32.0
18/07:00pm 23.0 21.8 20.1 84 1.9 ESE 26 39 14 21 1019.4 1019.4 32.0
18/06:31pm 23.1 21.2 20.1 83 1.9 ESE 30 37 16 20 1019.0 1019.0 32.0
18/06:30pm 23.1 21.2 20.1 83 1.9 ESE 30 37 16 20 1018.9 1018.9 32.0
18/06:00pm 22.8 21.4 20.5 87 1.5 ESE 28 41 15 22 1018.5 1018.5 32.0
18/05:51pm 22.8 21.3 20.9 89 1.2 ESE 30 44 16 24 1018.5 1018.5 32.0
18/05:30pm 22.6 20.4 20.3 87 1.5 ESE 32 43 17 23 1018.1 1018.1 32.0
18/05:05pm 22.9 20.8 20.6 87 1.5 E 32 46 17 25 1017.9 1017.9 32.0
18/05:00pm 23.0 20.8 20.7 87 1.5 ESE 33 46 18 25 1017.7 1017.7 31.8
18/04:40pm 23.4 21.0 20.3 83 2.0 ESE 33 43 18 23 1017.7 1017.7 29.6
18/04:30pm 23.9 22.5 20.4 81 2.3 ESE 28 43 15 23 1017.4 1017.4 28.6
18/04:04pm 23.4 21.0 20.3 83 2.0 ESE 33 46 18 25 1017.2 1017.2 28.6
18/04:00pm 23.4 21.0 20.3 83 2.0 E 33 46 18 25 1017.2 1017.2 28.6
18/03:42pm 23.7 21.7 21.2 86 1.6 E 33 52 18 28 1017.1 1017.1 28.6
18/03:30pm 23.9 21.5 21.0 84 1.9 E 35 50 19 27 1016.9 1016.9 28.6
18/03:01pm 23.8 21.3 20.9 84 1.9 E 35 54 19 29 1016.8 1016.8 28.6
18/03:00pm 23.6 20.9 20.5 83 2.0 E 35 52 19 28 1016.8 1016.8 28.6
18/02:55pm 24.1 21.6 21.6 86 1.7 E 37 54 20 29 1016.8 1016.8 28.6
18/02:53pm 23.9 21.2 21.2 85 1.8 E 37 54 20 29 1016.8 1016.8 28.6
18/02:30pm 24.3 22.1 21.4 84 1.9 E 35 48 19 26 1016.9 1016.9 28.6
18/02:03pm 23.6 21.0 21.5 88 1.4 E 37 52 20 28 1017.0 1017.0 28.6
18/02:00pm 23.5 21.3 21.4 88 1.4 E 35 52 19 28 1016.9 1016.9 28.6
18/01:47pm 22.9 22.4 21.5 92 0.9 ESE 26 50 14 27 1016.7 1016.7 28.4
18/01:30pm 22.6 25.2 21.2 92 0.9 SE 9 19 5 10 1017.1 1017.1 21.0
18/01:00pm 22.6 23.7 21.2 92 0.9 ESE 17 24 9 13 1017.7 1017.7 12.6
18/12:51pm 22.4 23.9 21.2 93 0.8 E 15 19 8 10 1017.9 1017.9 12.0
18/12:30pm 21.7 21.3 20.2 91 1.0 ESE 22 32 12 17 1018.2 1018.2 11.4
18/12:19pm 22.4 21.7 21.0 92 0.9 ESE 26 35 14 19 1018.2 1018.2 10.2
18/12:00pm 22.2 20.4 20.3 89 1.2 E 30 39 16 21 1018.4 1018.4 7.6
18/11:45am 23.3 22.7 21.2 88 1.4 ESE 26 33 14 18 1018.3 1018.3 6.6
18/11:44am 23.3 22.6 21.0 87 1.5 ESE 26 33 14 18 1018.3 1018.3 6.6
18/11:34am 23.5 22.4 21.0 86 1.6 E 28 41 15 22 1018.5 1018.5 6.6
18/11:31am 23.6 22.5 21.1 86 1.6 E 28 41 15 22 1018.5 1018.5 6.6
18/11:30am 23.9 23.1 21.6 87 1.5 E 28 41 15 22 1018.5 1018.5 6.6
18/11:28am 23.5 21.8 20.6 84 1.9 E 30 41 16 22 1018.5 1018.5 6.6
18/11:00am 23.3 22.8 20.8 86 1.6 E 24 43 13 23 1018.5 1018.5 6.6
18/10:36am 22.2 21.7 20.7 91 1.0 ESE 24 30 13 16 1018.8 1018.8 6.6
18/10:32am 22.1 21.2 20.6 91 1.0 ESE 26 32 14 17 1018.8 1018.8 6.6
18/10:31am 22.0 21.0 20.5 91 1.0 ESE 26 35 14 19 1018.8 1018.8 6.4
18/10:30am 22.1 21.2 20.6 91 1.0 ESE 26 35 14 19 1018.8 1018.8 6.4
18/10:12am 22.8 21.4 20.5 87 1.5 ESE 28 48 15 26 1018.8 1018.8 1.8
18/10:00am 24.1 24.1 21.6 86 1.7 ESE 24 33 13 18 1018.5 1018.5 0.0
18/09:58am 23.9 23.5 21.0 84 1.9 ESE 24 35 13 19 1018.5 1018.5 0.0
18/09:30am 24.7 24.6 21.4 82 2.2 E 24 33 13 18 1018.2 1018.2 0.0
18/09:21am 24.6 23.6 21.3 82 2.2 E 28 39 15 21 1018.2 1018.2 0.0
18/09:00am 24.3 23.9 21.0 82 2.2 E 24 32 13 17 1018.1 1018.1 102.4
18/08:30am 24.0 24.8 21.7 87 1.5 ESE 20 28 11 15 1018.0 1018.0 102.4
18/08:00am 23.4 24.6 21.5 89 1.3 ESE 17 24 9 13 1017.8 1017.8 102.4
18/07:30am 23.0 24.4 21.1 89 1.2 SE 15 19 8 10 1017.5 1017.5 102.4
18/07:00am 22.5 23.4 20.8 90 1.1 ESE 17 24 9 13 1017.1 1017.1 102.4
18/06:48am 22.4 23.3 20.9 91 1.0 ESE 17 24 9 13 1017.1 1017.1 102.4
18/06:30am 22.1 22.5 20.7 92 0.9 SE 19 28 10 15 1016.9 1016.9 102.4
18/06:29am 22.1 22.5 20.7 92 0.9 SE 19 28 10 15 1016.9 1016.9 102.4
18/06:23am 21.9 22.6 20.5 92 0.9 ESE 17 24 9 13 1016.8 1016.8 102.4
18/06:13am 22.1 24.1 20.7 92 0.9 ESE 11 20 6 11 1016.7 1016.7 102.0
18/06:00am 21.9 22.1 20.2 90 1.1 ESE 19 28 10 15 1016.3 1016.3 96.8
18/05:56am 22.2 22.6 20.7 91 1.0 ESE 19 28 10 15 1016.3 1016.3 96.0
18/05:53am 22.3 23.2 20.8 91 1.0 ESE 17 22 9 12 1016.3 1016.3 95.6
18/05:30am 22.5 24.2 21.0 91 1.0 ESE 13 17 7 9 1015.8 1015.8 95.6
18/05:16am 22.6 24.3 20.9 90 1.1 ESE 13 17 7 9 1015.7 1015.7 95.6
18/05:00am 22.4 25.1 20.7 90 1.1 SE 7 11 4 6 1015.4 1015.4 95.4
18/04:30am 22.2 24.1 20.5 90 1.1 SE 11 17 6 9 1015.1 1015.1 95.4
18/04:00am 22.4 24.2 20.3 88 1.4 SE 11 17 6 9 1014.9 1014.9 95.4
18/03:30am 22.2 23.3 20.5 90 1.1 SE 15 20 8 11 1014.8 1014.8 95.4
18/03:19am 22.2 23.7 20.5 90 1.1 SE 13 17 7 9 1014.7 1014.7 95.4
18/03:00am 22.1 23.1 20.2 89 1.2 SE 15 20 8 11 1014.6 1014.6 95.4
18/02:30am 22.5 23.2 20.4 88 1.4 SE 17 22 9 12 1014.8 1014.8 95.4
18/02:12am 22.5 22.7 20.6 89 1.2 ESE 20 26 11 14 1014.9 1014.9 95.4
18/02:00am 22.5 22.6 20.4 88 1.4 ESE 20 28 11 15 1015.0 1015.0 95.4
18/01:30am 22.6 21.9 20.3 87 1.5 ESE 24 32 13 17 1015.4 1015.4 95.4
18/01:00am 23.1 22.2 20.6 86 1.6 E 26 35 14 19 1015.4 1015.4 95.4
18/12:55am 23.0 22.0 20.5 86 1.6 E 26 35 14 19 1015.5 1015.5 95.4
18/12:42am 22.8 23.8 21.1 90 1.1 ESE 17 24 9 13 1015.7 1015.7 95.4
18/12:30am 23.0 23.2 21.3 90 1.1 ESE 22 32 12 17 1015.8 1015.8 95.4
18/12:21am 23.0 21.8 20.9 88 1.4 E 28 37 15 20 1015.9 1015.9 95.2
18/12:20am 23.0 21.8 20.9 88 1.4 E 28 37 15 20 1015.9 1015.9 95.2
18/12:06am 22.9 21.2 20.6 87 1.5 E 30 41 16 22 1016.0 1016.0 95.0
18/12:04am 23.0 21.8 20.9 88 1.4 ESE 28 39 15 21 1016.0 1016.0 95.0
18/12:00am 23.0 22.2 20.9 88 1.4 ESE 26 37 14 20 1016.1 1016.1 94.8
 
Date/Time
EST
Temp
°C
App
Temp
°C
Dew
Point
°C
Rel
Hum
%
Delta-T
°C
Wind Press
QNH
hPa
Press
MSL
hPa
Rain since
9am
mm
Dir  Spd
km/h
Gust
km/h
Spd
kts
Gust
kts
17/11:30pm 22.9 22.2 21.0 89 1.2 ESE 26 37 14 20 1016.2 1016.2 94.4
17/11:27pm 22.7 22.0 21.0 90 1.1 ESE 26 37 14 20 1016.2 1016.2 94.4
17/11:04pm 22.2 20.7 20.3 89 1.2 ESE 28 59 15 32 1016.4 1016.4 92.2
17/11:03pm 22.4 21.4 20.5 89 1.2 ESE 26 48 14 26 1016.5 1016.5 91.6
17/11:02pm 22.6 21.7 20.7 89 1.2 ESE 26 39 14 21 1016.4 1016.4 90.2
17/11:00pm 22.5 21.9 20.6 89 1.2 ESE 24 32 13 17 1016.1 1016.1 89.0
17/10:40pm 22.3 20.5 20.4 89 1.2 ESE 30 54 16 29 1016.3 1016.3 88.6
17/10:30pm 22.4 20.9 20.9 91 1.0 ESE 30 41 16 22 1016.1 1016.1 88.2
17/10:18pm 22.3 21.1 20.8 91 1.0 ESE 28 46 15 25 1016.0 1016.0 87.0
17/10:04pm 22.8 20.7 20.9 89 1.2 ESE 33 44 18 24 1016.0 1016.0 82.8
17/10:02pm 22.9 20.7 20.8 88 1.4 ESE 33 44 18 24 1016.0 1016.0 82.8
17/10:00pm 23.0 20.8 20.7 87 1.5 ESE 33 44 18 24 1016.0 1016.0 82.4
17/09:51pm 23.1 20.9 20.8 87 1.5 ESE 33 46 18 25 1015.8 1015.8 82.4
17/09:44pm 23.1 20.5 20.6 86 1.6 ESE 35 44 19 24 1015.8 1015.8 82.4
17/09:30pm 23.3 21.4 21.0 87 1.5 E 32 50 17 27 1015.7 1015.7 82.4
17/09:26pm 23.2 21.4 21.1 88 1.4 E 32 50 17 27 1015.7 1015.7 82.4
17/09:00pm 23.1 22.0 21.0 88 1.4 E 28 43 15 23 1015.5 1015.5 82.2
17/08:54pm 22.9 22.1 20.8 88 1.4 E 26 37 14 20 1015.5 1015.5 82.2
17/08:30pm 23.2 22.2 21.3 89 1.2 E 28 39 15 21 1015.3 1015.3 81.8
17/08:03pm 23.1 23.4 20.8 87 1.5 E 20 30 11 16 1015.2 1015.2 77.6
17/08:00pm 23.1 23.4 20.8 87 1.5 E 20 28 11 15 1015.2 1015.2 77.6
17/07:50pm 23.2 23.3 21.1 88 1.4 ESE 22 32 12 17 1015.2 1015.2 77.4
17/07:46pm 23.1 23.0 20.8 87 1.5 ESE 22 32 12 17 1015.2 1015.2 77.2
17/07:30pm 23.4 22.7 20.3 83 2.0 E 24 35 13 19 1015.2 1015.2 77.0
17/07:00pm 23.0 23.2 20.5 86 1.6 E 20 24 11 13 1015.1 1015.1 76.8

Other Formats:

Comma delimited format used in spreadsheet applications
http://www.bom.gov.au/fwo/IDQ60801/IDQ60801.94381.axf

JavaScript Object Notation format (JSON) in row-major order
http://www.bom.gov.au/fwo/IDQ60801/IDQ60801.94381.json